Time;durP1;ratioP1;P1;durP2;ratioP2;P2;SDS_P1;SDS_P2;PMS_P1;PMS_P2;Temp;Humidity;BMP_temperature;BMP_pressure;BME280_temperature;BME280_humidity;BME280_pressure;Samples;Min_cycle;Max_cycle;Signal;HPM_P1;HPM_P2
2023/10/04 00:01:04;;;;;;;7.47;2.00;;;12.40;99.90;;;;;;7304918;32;20113;-56
2023/10/04 00:05:06;;;;;;;6.12;1.73;;;12.20;99.90;;;;;;7293845;32;20127;-56
2023/10/04 00:09:09;;;;;;;5.90;1.98;;;12.30;99.90;;;;;;7303635;32;20552;-55
2023/10/04 00:13:13;;;;;;;6.28;2.03;;;12.30;99.90;;;;;;7299653;32;20156;-55
2023/10/04 00:17:15;;;;;;;5.20;1.80;;;12.20;99.90;;;;;;7299960;32;20233;-56
2023/10/04 00:21:17;;;;;;;7.95;1.92;;;12.20;99.90;;;;;;7303009;32;20583;-55
2023/10/04 00:25:22;;;;;;;4.47;1.80;;;12.20;99.90;;;;;;7300811;32;20131;-56
2023/10/04 00:29:24;;;;;;;7.95;1.83;;;12.10;99.90;;;;;;7302414;32;20092;-56
2023/10/04 00:33:26;;;;;;;7.70;1.80;;;12.00;99.90;;;;;;7302923;32;20398;-55
2023/10/04 00:37:28;;;;;;;8.07;1.83;;;12.10;99.90;;;;;;7303168;32;20111;-56
2023/10/04 00:41:30;;;;;;;10.50;2.22;;;12.10;99.90;;;;;;7299447;32;20514;-57
2023/10/04 00:45:34;;;;;;;8.15;1.83;;;12.00;99.90;;;;;;7298674;32;20591;-56
2023/10/04 00:49:37;;;;;;;8.32;1.83;;;12.10;99.90;;;;;;7302205;32;20096;-56
2023/10/04 00:53:39;;;;;;;8.80;2.53;;;12.00;99.90;;;;;;7299483;32;20694;-57
2023/10/04 00:57:41;;;;;;;10.20;2.70;;;12.10;99.90;;;;;;7296018;32;20123;-56
2023/10/04 01:01:43;;;;;;;11.57;1.95;;;12.10;99.90;;;;;;7302782;32;20178;-55
2023/10/04 01:05:47;;;;;;;6.72;1.62;;;12.20;99.90;;;;;;7298678;32;20503;-56
2023/10/04 01:09:49;;;;;;;6.43;1.83;;;12.20;99.90;;;;;;7296901;32;20221;-57
2023/10/04 01:13:56;;;;;;;6.62;1.65;;;12.20;99.90;;;;;;7297864;32;20773;-56
2023/10/04 01:17:59;;;;;;;;;;;12.20;99.90;;;;;;7296468;32;20758;-55
2023/10/04 01:22:04;;;;;;;7.97;1.58;;;12.20;99.90;;;;;;7298327;32;20216;-56
2023/10/04 01:26:07;;;;;;;7.18;1.83;;;12.20;99.90;;;;;;7301833;32;20130;-55
2023/10/04 01:30:11;;;;;;;7.68;2.10;;;12.20;99.90;;;;;;7297111;32;20116;-56
2023/10/04 01:34:13;;;;;;;8.20;1.85;;;12.20;99.90;;;;;;7296969;32;20174;-56
2023/10/04 01:38:16;;;;;;;8.30;2.03;;;12.20;99.90;;;;;;7297007;32;20122;-56
2023/10/04 01:42:18;;;;;;;8.63;1.87;;;12.20;99.90;;;;;;7296164;32;20586;-56
2023/10/04 01:46:19;;;;;;;6.62;1.92;;;12.10;99.90;;;;;;7298596;32;20100;-57
2023/10/04 01:50:21;;;;;;;8.55;2.40;;;12.10;99.90;;;;;;7300345;32;20174;-56
2023/10/04 01:54:23;;;;;;;6.37;1.77;;;12.10;99.90;;;;;;7297152;32;20115;-57
2023/10/04 01:58:25;;;;;;;11.35;1.83;;;12.10;99.90;;;;;;7297755;32;20169;-56
2023/10/04 02:02:28;;;;;;;6.80;1.92;;;12.10;99.90;;;;;;7297904;32;20808;-55
2023/10/04 02:06:32;;;;;;;10.60;1.98;;;12.20;99.90;;;;;;7296140;32;20819;-57
2023/10/04 02:10:35;;;;;;;7.50;1.95;;;12.20;99.90;;;;;;7296689;32;20153;-56
2023/10/04 02:14:36;;;;;;;8.82;1.80;;;12.30;99.90;;;;;;7298419;32;20190;-56
2023/10/04 02:18:39;;;;;;;8.77;1.83;;;12.20;99.90;;;;;;7302284;32;20210;-56
2023/10/04 02:22:41;;;;;;;7.82;1.85;;;12.30;99.90;;;;;;7293182;32;20199;-55
2023/10/04 02:26:43;;;;;;;6.65;2.17;;;12.30;99.90;;;;;;7298314;32;20188;-55
2023/10/04 02:30:48;;;;;;;8.85;1.70;;;12.30;99.90;;;;;;7300399;32;20619;-56
2023/10/04 02:34:50;;;;;;;9.95;1.83;;;12.20;99.90;;;;;;7295435;32;20244;-54
2023/10/04 02:38:52;;;;;;;13.05;1.92;;;12.30;99.90;;;;;;7301206;32;20530;-55
2023/10/04 02:42:55;;;;;;;7.18;1.90;;;12.30;99.90;;;;;;7294697;32;20349;-56
2023/10/04 02:46:57;;;;;;;6.43;2.15;;;12.40;99.90;;;;;;7294028;32;20223;-55
2023/10/04 02:50:59;;;;;;;7.37;1.77;;;12.40;99.90;;;;;;7293873;32;20113;-54
2023/10/04 02:55:01;;;;;;;6.00;1.60;;;12.40;99.90;;;;;;7297967;32;20311;-55
2023/10/04 02:59:03;;;;;;;9.55;1.95;;;12.40;99.90;;;;;;7302082;32;20542;-55
2023/10/04 03:03:05;;;;;;;12.43;1.92;;;12.50;99.90;;;;;;7302867;32;20158;-54
2023/10/04 03:07:09;;;;;;;7.93;1.70;;;12.50;99.90;;;;;;7301545;32;20252;-56
2023/10/04 03:11:12;;;;;;;10.20;2.10;;;12.50;99.90;;;;;;7303334;32;20177;-56
2023/10/04 03:15:13;;;;;;;8.15;1.83;;;12.50;99.90;;;;;;7300241;32;20559;-55
2023/10/04 03:19:16;;;;;;;7.43;1.58;;;12.50;99.90;;;;;;7304799;32;20104;-55
2023/10/04 03:23:21;;;;;;;12.07;2.25;;;12.60;99.90;;;;;;7303913;32;20104;-54
2023/10/04 03:27:24;;;;;;;9.00;1.92;;;12.60;99.90;;;;;;7304466;32;20161;-54
2023/10/04 03:31:26;;;;;;;11.02;1.90;;;12.60;99.90;;;;;;7300637;32;20088;-54
2023/10/04 03:35:29;;;;;;;8.10;1.77;;;12.60;99.90;;;;;;7298075;32;20304;-56
2023/10/04 03:39:32;;;;;;;10.60;2.03;;;12.60;99.90;;;;;;7306339;32;20555;-55
2023/10/04 03:43:35;;;;;;;7.15;1.75;;;12.60;99.90;;;;;;7300021;32;20667;-55
2023/10/04 03:47:38;;;;;;;8.82;1.87;;;12.60;99.90;;;;;;7299729;32;20104;-56
2023/10/04 03:51:40;;;;;;;9.38;1.67;;;12.70;99.90;;;;;;7300445;32;20132;-55
2023/10/04 03:55:43;;;;;;;8.38;1.65;;;12.70;99.90;;;;;;7301689;32;20474;-55
2023/10/04 03:59:44;;;;;;;5.87;1.50;;;12.70;99.90;;;;;;7305336;32;20118;-55
2023/10/04 04:03:49;;;;;;;7.03;1.87;;;12.70;99.90;;;;;;7297073;32;20126;-55
2023/10/04 04:07:52;;;;;;;8.75;2.05;;;12.70;99.90;;;;;;7295821;32;20204;-55
2023/10/04 04:11:54;;;;;;;12.75;1.85;;;12.70;99.90;;;;;;7303726;32;20558;-55
2023/10/04 04:15:55;;;;;;;7.65;2.15;;;12.70;99.90;;;;;;7301887;32;20165;-54
2023/10/04 04:19:57;;;;;;;8.23;1.42;;;12.60;99.90;;;;;;7305188;32;20112;-54
2023/10/04 04:23:59;;;;;;;11.50;2.25;;;12.60;99.90;;;;;;7295648;32;20471;-55
2023/10/04 04:28:02;;;;;;;12.10;1.77;;;12.60;99.90;;;;;;7299143;32;20126;-55
2023/10/04 04:32:06;;;;;;;9.88;2.08;;;12.60;99.90;;;;;;7301636;32;20246;-54
2023/10/04 04:36:17;;;;;;;7.32;1.42;;;12.60;99.90;;;;;;7298119;32;20243;-55
2023/10/04 04:40:23;;;;;;;11.70;1.67;;;12.60;99.90;;;;;;7302089;32;20197;-55
2023/10/04 04:44:33;;;;;;;13.57;1.77;;;12.60;99.90;;;;;;7301075;32;20633;-55
2023/10/04 04:48:38;;;;;;;8.95;2.12;;;12.40;99.90;;;;;;7292734;32;20116;-54
2023/10/04 04:52:42;;;;;;;11.10;1.77;;;12.40;99.90;;;;;;7297876;32;20526;-55
2023/10/04 04:56:44;;;;;;;6.05;2.15;;;12.30;99.90;;;;;;7298192;32;20256;-55
2023/10/04 05:00:50;;;;;;;7.35;1.98;;;12.20;99.90;;;;;;7295717;32;20241;-55
2023/10/04 05:04:51;;;;;;;12.47;2.67;;;12.20;99.90;;;;;;7295332;32;20128;-55
2023/10/04 05:08:56;;;;;;;10.65;1.67;;;12.10;99.90;;;;;;7300435;32;20236;-56
2023/10/04 05:13:00;;;;;;;6.50;1.65;;;12.10;99.90;;;;;;7291794;32;20196;-56
2023/10/04 05:17:02;;;;;;;7.65;1.60;;;12.00;99.90;;;;;;7297531;32;20254;-55
2023/10/04 05:21:05;;;;;;;8.20;2.20;;;12.00;99.90;;;;;;7298522;32;20116;-56
2023/10/04 05:25:07;;;;;;;12.93;1.85;;;11.90;99.90;;;;;;7299252;32;20127;-55
2023/10/04 05:29:09;;;;;;;9.63;2.78;;;11.90;99.90;;;;;;7296850;32;20693;-57
2023/10/04 05:33:16;;;;;;;12.25;2.40;;;11.90;99.90;;;;;;7299424;32;20112;-55
2023/10/04 05:37:18;;;;;;;10.05;2.37;;;11.90;99.90;;;;;;7292847;32;20757;-55
2023/10/04 05:41:20;;;;;;;8.63;2.05;;;11.80;99.90;;;;;;7295749;32;20953;-56
2023/10/04 05:45:22;;;;;;;10.25;2.60;;;11.70;99.90;;;;;;7299325;32;20241;-55
2023/10/04 05:49:26;;;;;;;11.52;1.90;;;11.70;99.90;;;;;;7301323;32;20123;-56
2023/10/04 05:53:27;;;;;;;14.52;2.80;;;11.80;99.90;;;;;;7298494;32;20101;-55
2023/10/04 05:57:29;;;;;;;14.30;2.97;;;11.70;99.90;;;;;;7300534;32;20321;-57
2023/10/04 06:01:34;;;;;;;14.32;2.55;;;11.70;99.90;;;;;;7300128;32;20191;-55
2023/10/04 06:05:37;;;;;;;11.57;2.97;;;11.60;99.90;;;;;;7298550;32;20108;-55
2023/10/04 06:09:42;;;;;;;11.52;2.65;;;11.70;99.90;;;;;;7294868;32;20195;-57
2023/10/04 06:13:43;;;;;;;10.90;2.53;;;11.70;99.90;;;;;;7291945;32;20108;-55
2023/10/04 06:17:50;;;;;;;13.55;2.95;;;11.70;99.90;;;;;;7297370;32;20224;-56
2023/10/04 06:21:52;;;;;;;16.25;3.40;;;11.80;99.90;;;;;;7300397;32;20112;-55
2023/10/04 06:25:53;;;;;;;14.38;3.50;;;11.80;99.90;;;;;;7295127;32;20179;-56
2023/10/04 06:29:55;;;;;;;8.75;2.55;;;11.70;99.90;;;;;;7296733;32;20622;-56
2023/10/04 06:33:58;;;;;;;15.57;2.65;;;11.80;99.90;;;;;;7300357;32;20279;-55
2023/10/04 06:38:03;;;;;;;15.02;2.47;;;11.80;99.90;;;;;;7303682;32;20835;-56
2023/10/04 06:42:05;;;;;;;9.75;2.45;;;11.90;99.90;;;;;;7302478;32;20100;-56
2023/10/04 06:46:07;;;;;;;11.70;2.25;;;11.90;99.90;;;;;;7302437;32;20179;-56
2023/10/04 06:50:11;;;;;;;12.05;2.40;;;11.90;99.90;;;;;;7302180;32;20225;-56
2023/10/04 06:54:15;;;;;;;10.43;2.10;;;11.90;99.90;;;;;;7303927;32;20226;-55
2023/10/04 06:58:16;;;;;;;10.05;2.03;;;11.90;99.90;;;;;;7306108;32;20175;-57
2023/10/04 07:02:19;;;;;;;11.23;2.40;;;11.90;99.90;;;;;;7297016;32;20707;-56
2023/10/04 07:06:21;;;;;;;11.77;3.17;;;12.00;99.90;;;;;;7299822;32;20369;-56
2023/10/04 07:10:28;;;;;;;14.35;2.40;;;12.10;99.90;;;;;;7300914;32;20096;-56
2023/10/04 07:14:30;;;;;;;11.15;2.20;;;12.10;99.90;;;;;;7296165;32;20171;-56
2023/10/04 07:18:32;;;;;;;13.32;2.55;;;12.10;99.90;;;;;;7300265;32;20483;-56
2023/10/04 07:22:36;;;;;;;11.45;2.30;;;12.10;99.90;;;;;;7297853;32;20119;-56
2023/10/04 07:26:37;;;;;;;12.23;2.20;;;12.30;99.90;;;;;;7295428;32;20157;-55
2023/10/04 07:30:40;;;;;;;13.70;2.60;;;12.30;99.90;;;;;;7299138;32;20107;-56
2023/10/04 07:34:42;;;;;;;13.27;1.92;;;12.30;99.90;;;;;;7301658;32;20143;-56
2023/10/04 07:38:45;;;;;;;11.80;2.20;;;12.40;99.90;;;;;;7302905;32;20124;-55
2023/10/04 07:42:48;;;;;;;10.88;2.50;;;12.50;99.90;;;;;;7302627;32;20153;-56
2023/10/04 07:46:50;;;;;;;13.70;3.00;;;12.60;99.90;;;;;;7303789;32;20222;-57
2023/10/04 07:50:52;;;;;;;12.63;2.22;;;12.70;99.90;;;;;;7296717;32;20173;-56
2023/10/04 07:54:54;;;;;;;8.63;2.40;;;12.70;99.90;;;;;;7298977;32;20131;-56
2023/10/04 07:58:57;;;;;;;11.20;2.75;;;12.80;99.90;;;;;;7301870;32;20127;-56
2023/10/04 08:02:59;;;;;;;12.90;2.78;;;12.90;99.90;;;;;;7297500;32;20175;-56
2023/10/04 08:07:01;;;;;;;15.38;3.37;;;13.00;99.90;;;;;;7297790;32;20253;-56
2023/10/04 08:11:08;;;;;;;11.07;2.47;;;13.00;99.90;;;;;;7302611;32;20096;-56
2023/10/04 08:15:13;;;;;;;;;;;13.10;99.90;;;;;;7297018;32;20154;-57
2023/10/04 08:19:15;;;;;;;14.27;2.83;;;13.20;99.90;;;;;;7294150;32;20425;-56
2023/10/04 08:23:17;;;;;;;13.20;2.50;;;13.30;99.90;;;;;;7298143;32;20100;-55
2023/10/04 08:27:19;;;;;;;15.55;2.80;;;13.50;99.90;;;;;;7300646;32;20112;-57
2023/10/04 08:31:21;;;;;;;12.73;3.12;;;13.60;99.90;;;;;;7302402;32;20199;-55
2023/10/04 08:35:32;;;;;;;11.95;2.55;;;13.70;99.90;;;;;;7296272;32;20095;-56
2023/10/04 08:39:36;;;;;;;10.13;2.58;;;13.90;99.90;;;;;;7299397;32;20197;-56
2023/10/04 08:43:39;;;;;;;14.85;3.22;;;13.90;99.90;;;;;;7300932;32;20104;-57
2023/10/04 08:47:42;;;;;;;14.65;2.60;;;14.00;99.90;;;;;;7298529;32;20202;-56
2023/10/04 08:51:44;;;;;;;12.82;2.80;;;14.20;99.90;;;;;;7294568;32;20165;-56
2023/10/04 08:55:53;;;;;;;12.55;2.90;;;14.40;99.90;;;;;;7302290;32;20145;-55
2023/10/04 08:59:56;;;;;;;12.00;2.42;;;14.70;99.90;;;;;;7299710;32;20108;-56
2023/10/04 09:04:00;;;;;;;12.82;2.92;;;14.70;99.90;;;;;;7299237;32;20119;-56
2023/10/04 09:08:04;;;;;;;14.45;2.20;;;14.70;99.90;;;;;;7298605;32;20170;-57
2023/10/04 09:12:09;;;;;;;10.77;2.50;;;14.80;99.90;;;;;;7296271;32;20099;-55
2023/10/04 09:16:22;;;;;;;10.88;2.20;;;15.00;99.90;;;;;;7295075;32;20278;-55
2023/10/04 09:20:30;;;;;;;8.52;2.67;;;15.20;99.90;;;;;;7300381;32;20119;-55
2023/10/04 09:24:32;;;;;;;;;;;15.30;99.90;;;;;;7302751;32;20559;-55
2023/10/04 09:28:38;;;;;;;10.20;2.30;;;15.50;99.90;;;;;;7299280;32;20181;-55
2023/10/04 09:32:40;;;;;;;9.37;2.20;;;15.80;99.90;;;;;;7301282;32;20100;-55
2023/10/04 09:36:42;;;;;;;14.73;2.92;;;16.30;99.90;;;;;;7302551;32;20554;-55
2023/10/04 09:40:55;;;;;;;8.82;2.08;;;16.70;99.90;;;;;;7301105;32;20202;-55
2023/10/04 09:45:09;;;;;;;11.35;2.45;;;16.90;99.90;;;;;;7300174;32;20121;-56
2023/10/04 09:49:10;;;;;;;8.00;2.22;;;17.20;99.90;;;;;;7300737;32;20195;-55
2023/10/04 09:53:12;;;;;;;9.80;2.35;;;17.60;99.90;;;;;;7292341;32;20116;-55
2023/10/04 09:57:16;;;;;;;10.90;2.87;;;17.80;99.90;;;;;;7293507;32;20104;-56
2023/10/04 10:01:19;;;;;;;9.43;2.30;;;17.70;99.90;;;;;;7298553;32;20112;-56
2023/10/04 10:05:30;;;;;;;7.57;2.40;;;17.20;99.90;;;;;;7294954;32;20130;-55
2023/10/04 10:09:35;;;;;;;8.55;2.28;;;17.00;99.90;;;;;;7296051;32;20146;-55
2023/10/04 10:13:57;;;;;;;11.55;2.37;;;16.80;99.90;;;;;;7300446;32;20118;-55
2023/10/04 10:18:00;;;;;;;10.15;3.12;;;16.60;99.90;;;;;;7300524;32;20088;-56
2023/10/04 10:22:13;;;;;;;8.30;2.58;;;16.60;99.90;;;;;;7303240;32;20354;-54
2023/10/04 10:26:20;;;;;;;8.32;2.00;;;16.70;99.90;;;;;;7293265;32;20100;-55
2023/10/04 10:30:23;;;;;;;10.18;2.12;;;16.60;99.90;;;;;;7297033;32;20203;-55
2023/10/04 10:34:27;;;;;;;10.02;2.20;;;16.60;99.90;;;;;;7301259;32;20119;-55
2023/10/04 10:38:41;;;;;;;9.50;2.08;;;16.70;99.90;;;;;;7294756;32;20511;-56
2023/10/04 10:43:11;;;;;;;7.85;2.25;;;16.90;99.90;;;;;;7289777;32;20108;-55
2023/10/04 10:47:17;;;;;;;10.13;2.50;;;17.20;99.90;;;;;;7299208;32;20247;-54
2023/10/04 10:51:42;;;;;;;9.07;3.15;;;17.20;99.90;;;;;;7295150;32;20126;-54
2023/10/04 10:55:44;;;;;;;8.15;2.37;;;17.00;99.90;;;;;;7295993;32;20154;-55
2023/10/04 10:59:48;;;;;;;12.07;2.17;;;17.00;99.90;;;;;;7291890;32;20301;-56
2023/10/04 11:03:50;;;;;;;5.68;2.08;;;17.00;99.90;;;;;;7297726;32;20115;-56
2023/10/04 11:07:54;;;;;;;8.32;2.62;;;17.00;99.90;;;;;;7292824;32;20146;-57
2023/10/04 11:11:56;;;;;;;7.47;2.45;;;17.00;99.90;;;;;;7292909;32;20581;-55
2023/10/04 11:15:58;;;;;;;8.15;2.00;;;17.10;99.90;;;;;;7291391;32;20104;-55
2023/10/04 11:20:13;;;;;;;7.22;1.98;;;17.10;99.90;;;;;;7292554;32;20203;-55
2023/10/04 11:24:15;;;;;;;7.37;1.92;;;17.10;99.90;;;;;;7296587;32;20238;-55
2023/10/04 11:28:17;;;;;;;6.03;1.87;;;17.00;99.90;;;;;;7301367;32;20257;-54
2023/10/04 11:32:21;;;;;;;10.13;2.83;;;16.90;99.90;;;;;;7297232;32;20214;-55
2023/10/04 11:36:23;;;;;;;8.85;2.15;;;16.90;99.90;;;;;;7295389;32;20198;-56
2023/10/04 11:40:28;;;;;;;10.65;2.80;;;17.00;99.90;;;;;;7297788;32;20386;-56
2023/10/04 11:44:34;;;;;;;8.50;2.30;;;17.00;99.90;;;;;;7301055;32;20108;-56
2023/10/04 11:48:36;;;;;;;10.35;2.17;;;17.10;99.90;;;;;;7299013;32;20103;-57
2023/10/04 11:52:40;;;;;;;6.28;2.15;;;17.20;99.90;;;;;;7298968;32;20268;-57
2023/10/04 11:56:42;;;;;;;10.35;3.22;;;17.30;99.90;;;;;;7301425;32;20241;-58
2023/10/04 12:00:44;;;;;;;8.48;2.80;;;17.30;99.90;;;;;;7299960;32;20170;-58
2023/10/04 12:04:46;;;;;;;9.95;2.97;;;17.30;99.90;;;;;;7301740;32;20177;-57
2023/10/04 12:08:48;;;;;;;13.80;3.45;;;17.40;99.90;;;;;;7299599;32;20100;-58
2023/10/04 12:12:52;;;;;;;10.73;2.75;;;17.30;99.90;;;;;;7297170;32;20166;-59
2023/10/04 12:16:54;;;;;;;14.23;3.10;;;17.40;99.90;;;;;;7296681;32;20179;-59
2023/10/04 12:20:56;;;;;;;11.40;2.95;;;17.40;99.90;;;;;;7299478;32;20235;-58
2023/10/04 12:24:59;;;;;;;11.23;3.42;;;17.40;99.90;;;;;;7298969;32;20139;-59
2023/10/04 12:29:01;;;;;;;9.55;3.67;;;17.40;99.90;;;;;;7298851;32;20162;-58
2023/10/04 12:33:05;;;;;;;8.15;2.90;;;17.30;99.90;;;;;;7297302;32;20970;-58
2023/10/04 12:37:07;;;;;;;7.53;2.80;;;17.10;99.90;;;;;;7296399;32;20145;-56
2023/10/04 12:41:09;;;;;;;10.02;2.80;;;17.10;99.90;;;;;;7292774;32;20522;-56
2023/10/04 12:45:11;;;;;;;11.82;3.72;;;17.10;99.90;;;;;;7293901;32;20462;-56
2023/10/04 12:49:15;;;;;;;10.65;3.78;;;17.10;99.90;;;;;;7294694;32;20266;-56
2023/10/04 12:53:16;;;;;;;12.18;3.35;;;17.10;99.90;;;;;;7296379;32;20104;-56
2023/10/04 12:57:18;;;;;;;8.30;3.28;;;17.20;99.90;;;;;;7292863;32;20498;-55
2023/10/04 13:01:21;;;;;;;14.10;3.58;;;17.40;99.90;;;;;;7294650;32;20100;-56
2023/10/04 13:05:23;;;;;;;11.10;4.45;;;17.40;99.90;;;;;;7292754;32;20628;-56
2023/10/04 13:09:27;;;;;;;11.02;3.87;;;17.40;99.90;;;;;;7295827;32;20467;-55
2023/10/04 13:13:29;;;;;;;11.55;3.78;;;17.40;99.90;;;;;;7287138;32;20153;-56
2023/10/04 13:17:31;;;;;;;10.30;4.07;;;17.20;99.90;;;;;;7293371;32;20269;-56
2023/10/04 13:21:32;;;;;;;9.32;3.40;;;17.10;99.90;;;;;;7296269;32;20589;-57
2023/10/04 13:25:36;;;;;;;9.98;3.62;;;17.20;99.90;;;;;;7295751;32;20122;-57
2023/10/04 13:29:37;;;;;;;10.68;4.03;;;17.20;99.90;;;;;;7295441;32;20130;-57
2023/10/04 13:33:39;;;;;;;14.70;5.22;;;17.30;99.90;;;;;;7298866;32;20483;-56
2023/10/04 13:37:44;;;;;;;11.93;4.32;;;17.30;99.90;;;;;;7296374;32;20199;-57
2023/10/04 13:41:45;;;;;;;14.13;3.92;;;17.30;99.90;;;;;;7300803;32;20095;-56
2023/10/04 13:45:52;;;;;;;9.35;3.53;;;17.30;99.90;;;;;;7292831;32;20159;-56
2023/10/04 13:49:54;;;;;;;9.70;4.05;;;17.30;99.90;;;;;;7297295;32;20537;-56
2023/10/04 13:53:58;;;;;;;10.55;4.12;;;17.20;99.90;;;;;;7293088;32;20123;-57
2023/10/04 13:58:00;;;;;;;13.52;4.03;;;17.10;99.90;;;;;;7295650;32;20475;-56
2023/10/04 14:02:02;;;;;;;8.18;3.40;;;17.00;99.90;;;;;;7295010;32;20500;-56
2023/10/04 14:06:12;;;;;;;9.82;3.70;;;16.90;99.90;;;;;;7292952;32;20190;-58
2023/10/04 14:10:14;;;;;;;13.23;3.83;;;16.80;99.90;;;;;;7292196;32;20105;-55
2023/10/04 14:14:16;;;;;;;8.73;3.22;;;16.80;99.90;;;;;;7297043;32;20124;-57
2023/10/04 14:18:18;;;;;;;13.65;3.47;;;16.80;99.90;;;;;;7295726;32;20552;-58
2023/10/04 14:22:19;;;;;;;11.68;3.53;;;16.90;99.90;;;;;;7299111;32;20111;-57
2023/10/04 14:26:21;;;;;;;10.30;3.40;;;16.70;99.90;;;;;;7295104;32;20579;-57
2023/10/04 14:30:25;;;;;;;9.77;2.80;;;16.60;99.90;;;;;;7290112;32;20565;-57
2023/10/04 14:34:27;;;;;;;11.10;3.22;;;16.70;99.90;;;;;;7296060;32;20156;-57
2023/10/04 14:38:28;;;;;;;12.90;3.42;;;16.70;99.90;;;;;;7289827;32;20305;-57
2023/10/04 14:42:33;;;;;;;9.20;3.40;;;16.70;99.90;;;;;;7292446;32;20548;-57
2023/10/04 14:46:35;;;;;;;10.60;2.90;;;16.70;99.90;;;;;;7297139;32;20119;-58
2023/10/04 14:50:38;;;;;;;10.13;3.25;;;16.70;99.90;;;;;;7296190;32;20107;-57
2023/10/04 14:54:41;;;;;;;10.02;3.20;;;16.70;99.90;;;;;;7294561;32;20233;-57
2023/10/04 14:58:43;;;;;;;12.37;3.47;;;16.60;99.90;;;;;;7302990;32;20100;-57
2023/10/04 15:02:45;;;;;;;12.80;3.62;;;16.60;99.90;;;;;;7302371;32;20254;-57
2023/10/04 15:06:47;;;;;;;8.70;2.92;;;16.60;99.90;;;;;;7298546;32;20123;-58
2023/10/04 15:10:51;;;;;;;11.50;3.30;;;16.70;99.90;;;;;;7298723;32;20273;-57
2023/10/04 15:14:53;;;;;;;11.30;3.87;;;16.50;99.90;;;;;;7300509;32;20526;-57
2023/10/04 15:18:55;;;;;;;7.85;3.03;;;16.40;99.90;;;;;;7301089;32;20514;-57
2023/10/04 15:23:04;;;;;;;10.52;2.97;;;16.50;99.90;;;;;;7292140;32;20112;-58
2023/10/04 15:27:07;;;;;;;9.98;2.67;;;16.50;99.90;;;;;;7299640;32;20498;-57
2023/10/04 15:31:11;;;;;;;10.25;3.17;;;16.60;99.90;;;;;;7303765;32;20112;-58
2023/10/04 15:35:14;;;;;;;9.25;2.70;;;16.50;99.90;;;;;;7303497;32;20176;-59
2023/10/04 15:39:20;;;;;;;6.80;2.50;;;16.60;99.90;;;;;;7301634;32;20099;-58
2023/10/04 15:43:23;;;;;;;10.32;2.65;;;16.70;99.90;;;;;;7298108;32;20577;-58
2023/10/04 15:47:24;;;;;;;7.78;2.30;;;16.70;99.90;;;;;;7296935;32;20226;-58
2023/10/04 15:51:28;;;;;;;11.60;2.85;;;16.70;99.90;;;;;;7299700;32;20132;-57
2023/10/04 15:55:30;;;;;;;10.60;2.92;;;16.60;99.90;;;;;;7291368;32;20577;-57
2023/10/04 15:59:32;;;;;;;8.60;2.70;;;16.50;99.90;;;;;;7303362;32;20104;-56
2023/10/04 16:03:35;;;;;;;8.90;2.80;;;16.40;99.90;;;;;;7299456;32;20336;-56
2023/10/04 16:07:37;;;;;;;12.37;3.28;;;16.40;99.90;;;;;;7299866;32;20544;-57
2023/10/04 16:11:39;;;;;;;9.18;2.72;;;16.30;99.90;;;;;;7301647;32;20108;-56
2023/10/04 16:15:41;;;;;;;8.52;2.67;;;16.20;99.90;;;;;;7299280;32;20309;-57
2023/10/04 16:19:43;;;;;;;10.15;3.00;;;16.20;99.90;;;;;;7299730;32;20426;-57
2023/10/04 16:23:46;;;;;;;12.35;2.80;;;16.20;99.90;;;;;;7295421;32;20096;-58
2023/10/04 16:27:51;;;;;;;13.13;2.60;;;16.10;99.90;;;;;;7301527;32;20179;-57
2023/10/04 16:31:53;;;;;;;10.18;2.12;;;16.10;99.90;;;;;;7297279;32;20151;-58
2023/10/04 16:35:56;;;;;;;8.18;2.58;;;16.10;99.90;;;;;;7302483;32;20151;-57
2023/10/04 16:39:57;;;;;;;9.60;2.83;;;16.00;99.90;;;;;;7302931;32;20100;-57
2023/10/04 16:43:59;;;;;;;9.90;3.12;;;16.00;99.90;;;;;;7299495;32;20126;-58
2023/10/04 16:48:03;;;;;;;12.48;3.00;;;16.00;99.90;;;;;;7295618;32;20137;-57
2023/10/04 16:52:05;;;;;;;9.75;2.90;;;15.90;99.90;;;;;;7300493;32;20203;-58
2023/10/04 16:56:10;;;;;;;9.00;2.80;;;15.80;99.90;;;;;;7300832;32;20096;-57
2023/10/04 17:00:15;;;;;;;9.85;2.45;;;15.80;99.90;;;;;;7295361;32;20181;-57
2023/10/04 17:04:18;;;;;;;15.60;2.78;;;15.70;99.90;;;;;;7299019;32;20124;-57
2023/10/04 17:08:20;;;;;;;10.32;2.50;;;15.70;99.90;;;;;;7299979;32;20153;-58
2023/10/04 17:12:23;;;;;;;14.82;2.55;;;15.70;99.90;;;;;;7295943;32;20104;-58
2023/10/04 17:16:25;;;;;;;11.63;2.87;;;15.50;99.90;;;;;;7294059;32;20105;-56
2023/10/04 17:20:27;;;;;;;9.20;2.87;;;15.50;99.90;;;;;;7299588;32;20203;-56
2023/10/04 17:24:29;;;;;;;9.15;2.50;;;15.50;99.90;;;;;;7299815;32;20329;-57
2023/10/04 17:28:31;;;;;;;11.38;2.87;;;15.50;99.90;;;;;;7297488;32;20379;-54
2023/10/04 17:32:32;;;;;;;9.55;3.05;;;15.50;99.90;;;;;;7296869;32;20088;-57
2023/10/04 17:36:34;;;;;;;6.93;2.67;;;15.50;99.90;;;;;;7300748;32;20571;-56
2023/10/04 17:40:37;;;;;;;11.75;2.90;;;15.40;99.90;;;;;;7297671;32;20105;-55
2023/10/04 17:44:40;;;;;;;8.35;2.70;;;15.30;99.90;;;;;;7297466;32;20160;-57
2023/10/04 17:48:42;;;;;;;9.80;2.40;;;15.30;99.90;;;;;;7300959;32;20473;-56
2023/10/04 17:52:43;;;;;;;8.40;2.70;;;15.20;99.90;;;;;;7298088;32;20481;-55
2023/10/04 17:56:47;;;;;;;8.35;2.60;;;15.20;99.90;;;;;;7296512;32;20127;-56
2023/10/04 18:00:49;;;;;;;11.43;2.80;;;15.10;99.90;;;;;;7298330;32;20099;-57
2023/10/04 18:04:51;;;;;;;9.43;2.40;;;15.10;99.90;;;;;;7294484;32;20143;-56
2023/10/04 18:08:54;;;;;;;7.20;2.40;;;15.00;99.90;;;;;;7293349;32;20237;-56
2023/10/04 18:12:57;;;;;;;7.50;2.20;;;15.00;99.90;;;;;;7297319;32;20329;-57
2023/10/04 18:16:59;;;;;;;6.25;2.30;;;15.00;99.90;;;;;;7295430;32;20552;-57
2023/10/04 18:21:01;;;;;;;8.18;2.42;;;14.90;99.90;;;;;;7288979;32;20195;-59
2023/10/04 18:25:08;;;;;;;10.50;2.65;;;14.90;99.90;;;;;;7299259;32;20115;-57
2023/10/04 18:29:10;;;;;;;9.90;2.90;;;14.80;99.90;;;;;;7297938;32;20561;-55
2023/10/04 18:33:11;;;;;;;10.32;3.28;;;14.80;99.90;;;;;;7298757;32;20227;-56
2023/10/04 18:37:14;;;;;;;7.82;2.60;;;14.70;99.90;;;;;;7295047;32;20108;-56
2023/10/04 18:41:16;;;;;;;9.30;2.40;;;14.70;99.90;;;;;;7291572;32;20223;-55
2023/10/04 18:45:18;;;;;;;7.60;2.70;;;14.70;99.90;;;;;;7300106;32;20320;-56
2023/10/04 18:49:21;;;;;;;8.95;2.80;;;14.70;99.90;;;;;;7294804;32;20589;-56
2023/10/04 18:53:23;;;;;;;9.27;2.97;;;14.70;99.90;;;;;;7295778;32;20115;-55
2023/10/04 18:57:25;;;;;;;9.27;2.65;;;14.80;99.90;;;;;;7292980;32;20219;-56
2023/10/04 19:01:27;;;;;;;9.75;2.65;;;14.80;99.90;;;;;;7292539;32;20238;-56
2023/10/04 19:05:29;;;;;;;12.52;3.15;;;14.70;99.90;;;;;;7297197;32;20112;-55
2023/10/04 19:09:33;;;;;;;8.32;2.70;;;14.60;99.90;;;;;;7294331;32;20194;-56
2023/10/04 19:13:35;;;;;;;11.40;3.47;;;14.60;99.90;;;;;;7293706;32;20221;-55
2023/10/04 19:17:39;;;;;;;8.48;3.45;;;14.70;99.90;;;;;;7296909;32;20341;-56
2023/10/04 19:21:41;;;;;;;12.35;3.58;;;14.70;99.90;;;;;;7296470;32;20165;-55
2023/10/04 19:25:49;;;;;;;9.93;2.97;;;14.60;99.90;;;;;;7296226;32;20544;-57
2023/10/04 19:29:52;;;;;;;9.30;3.17;;;14.70;99.90;;;;;;7287030;32;20447;-55
2023/10/04 19:33:55;;;;;;;9.10;3.30;;;14.70;99.90;;;;;;7294195;32;20119;-55
2023/10/04 19:37:57;;;;;;;13.05;3.22;;;14.70;99.90;;;;;;7291180;32;20780;-54
2023/10/04 19:41:59;;;;;;;10.75;4.35;;;14.80;99.90;;;;;;7299861;32;20183;-56
2023/10/04 19:46:00;;;;;;;8.77;3.50;;;14.80;99.90;;;;;;7300729;32;20188;-56
2023/10/04 19:50:05;;;;;;;10.15;3.60;;;14.80;99.90;;;;;;7299426;32;20131;-55
2023/10/04 19:54:08;;;;;;;11.20;3.60;;;14.70;99.90;;;;;;7302117;32;20120;-56
2023/10/04 19:58:13;;;;;;;10.57;3.87;;;14.70;99.90;;;;;;7298855;32;20104;-56
2023/10/04 20:02:16;;;;;;;12.20;4.10;;;14.80;99.90;;;;;;7302570;32;20096;-56
2023/10/04 20:06:22;;;;;;;12.57;4.50;;;14.80;99.90;;;;;;7299143;32;20131;-56
2023/10/04 20:10:23;;;;;;;13.32;4.32;;;14.80;99.90;;;;;;7302213;32;20123;-57
2023/10/04 20:14:28;;;;;;;16.70;4.60;;;14.80;99.90;;;;;;7304050;32;20198;-56
2023/10/04 20:18:30;;;;;;;15.52;3.62;;;14.80;99.90;;;;;;7295747;32;20104;-55
2023/10/04 20:22:32;;;;;;;9.35;4.10;;;14.80;99.90;;;;;;7300165;32;20219;-56
2023/10/04 20:26:33;;;;;;;11.23;4.10;;;14.80;99.90;;;;;;7296793;32;20092;-56
2023/10/04 20:30:35;;;;;;;12.32;4.07;;;14.80;99.90;;;;;;7299313;32;20582;-56
2023/10/04 20:34:37;;;;;;;13.52;4.47;;;14.80;99.90;;;;;;7302695;32;20247;-56
2023/10/04 20:38:39;;;;;;;11.98;4.20;;;14.80;99.90;;;;;;7301500;32;20952;-55
2023/10/04 20:42:42;;;;;;;13.35;4.15;;;14.80;99.90;;;;;;7299361;32;20206;-55
2023/10/04 20:46:44;;;;;;;9.20;3.80;;;14.90;99.90;;;;;;7300496;32;20113;-55
2023/10/04 20:50:46;;;;;;;11.12;3.67;;;14.90;99.90;;;;;;7298690;32;20242;-55
2023/10/04 20:54:49;;;;;;;15.60;4.22;;;14.90;99.90;;;;;;7299657;32;20131;-55
2023/10/04 20:58:51;;;;;;;12.45;4.43;;;14.90;99.90;;;;;;7300026;32;20119;-56